createdAt,value
2018-12-03T00:01:06.429Z,0
2018-12-03T00:02:16.678Z,0
2018-12-03T00:03:26.815Z,0
2018-12-03T00:04:37.857Z,0
2018-12-03T00:05:48.069Z,0
2018-12-03T00:06:57.967Z,0
2018-12-03T00:08:10.400Z,0
2018-12-03T00:09:20.568Z,0
2018-12-03T00:10:30.444Z,0
2018-12-03T00:11:40.576Z,0
2018-12-03T00:12:50.762Z,0
2018-12-03T00:14:00.902Z,0
2018-12-03T00:15:11.038Z,0
2018-12-03T00:16:21.182Z,0
2018-12-03T00:17:31.368Z,0
2018-12-03T00:18:41.540Z,0
2018-12-03T00:19:51.422Z,0
2018-12-03T00:21:01.558Z,0
2018-12-03T00:22:11.685Z,0
2018-12-03T00:23:21.928Z,0
2018-12-03T00:24:32.093Z,0
2018-12-03T00:25:42.201Z,0
2018-12-03T00:26:52.325Z,0
2018-12-03T00:28:02.456Z,0
2018-12-03T00:29:12.597Z,0
2018-12-03T00:30:22.798Z,0
2018-12-03T00:31:32.936Z,0
2018-12-03T00:32:43.072Z,0
2018-12-03T00:33:52.704Z,0
2018-12-03T00:35:03.560Z,0
2018-12-03T00:36:13.757Z,0
2018-12-03T00:37:23.617Z,0
2018-12-03T00:38:33.737Z,0
2018-12-03T00:39:43.605Z,0
2018-12-03T00:40:53.471Z,0
2018-12-03T00:42:03.712Z,0
2018-12-03T00:43:13.867Z,0
2018-12-03T00:44:23.497Z,0
2018-12-03T00:45:33.621Z,0
2018-12-03T00:46:44.348Z,0
2018-12-03T00:47:54.269Z,0
2018-12-03T00:49:04.383Z,0
2018-12-03T00:50:14.495Z,0
2018-12-03T00:51:24.617Z,0
2018-12-03T00:52:34.745Z,0
2018-12-03T00:53:44.626Z,0
2018-12-03T00:54:54.750Z,0
2018-12-03T00:56:04.904Z,0
2018-12-03T00:57:15.037Z,0
2018-12-03T00:58:24.927Z,8
2018-12-03T00:59:35.049Z,0
2018-12-03T01:00:45.279Z,0
2018-12-03T01:01:55.402Z,0
2018-12-03T01:03:05.286Z,0
2018-12-03T01:04:15.405Z,0
2018-12-03T01:05:25.540Z,0
2018-12-03T01:06:35.464Z,0
2018-12-03T01:07:45.605Z,0
2018-12-03T01:08:55.729Z,0
2018-12-03T01:10:06.304Z,0
2018-12-03T01:11:16.172Z,0
2018-12-03T01:12:26.301Z,0
2018-12-03T01:13:36.139Z,0
2018-12-03T01:14:46.275Z,0
2018-12-03T01:15:56.095Z,0
2018-12-03T01:17:06.279Z,0
2018-12-03T01:18:16.395Z,0
2018-12-03T01:19:26.552Z,0
2018-12-03T01:20:36.745Z,0
2018-12-03T01:21:46.860Z,0
2018-12-03T01:22:56.979Z,0
2018-12-03T01:24:07.090Z,0
2018-12-03T01:25:16.688Z,0
2018-12-03T01:26:26.548Z,0
2018-12-03T01:27:36.690Z,0
2018-12-03T01:28:46.883Z,0
2018-12-03T01:29:57.003Z,0
2018-12-03T01:31:07.876Z,0
2018-12-03T01:32:18.003Z,0
2018-12-03T01:33:28.140Z,0
2018-12-03T01:34:38.280Z,0
2018-12-03T01:35:48.414Z,0
2018-12-03T01:36:58.548Z,0
2018-12-03T01:38:10.683Z,0
2018-12-03T01:39:20.817Z,0
2018-12-03T01:40:30.983Z,0
2018-12-03T01:41:40.857Z,0
2018-12-03T01:42:50.988Z,0
2018-12-03T01:44:00.863Z,0
2018-12-03T01:45:11.086Z,0
2018-12-03T01:46:21.266Z,0
2018-12-03T01:47:31.391Z,0
2018-12-03T01:48:41.536Z,0
2018-12-03T01:49:51.649Z,0
2018-12-03T01:51:01.522Z,0
2018-12-03T01:52:11.700Z,0
2018-12-03T01:53:21.838Z,0
2018-12-03T01:54:31.697Z,0
2018-12-03T01:55:41.816Z,0
2018-12-03T01:56:51.936Z,0
2018-12-03T01:58:03.118Z,0
2018-12-03T01:59:13.231Z,0
2018-12-03T02:00:23.381Z,0
2018-12-03T02:01:33.524Z,0
2018-12-03T02:02:43.666Z,0
2018-12-03T02:03:54.011Z,0
2018-12-03T02:05:04.136Z,0
2018-12-03T02:06:14.304Z,0
2018-12-03T02:07:24.435Z,0
2018-12-03T02:08:34.552Z,0
2018-12-03T02:09:44.772Z,0
2018-12-03T02:10:54.648Z,0
2018-12-03T02:12:04.780Z,0
2018-12-03T02:13:14.917Z,0
2018-12-03T02:14:25.073Z,0
2018-12-03T02:15:35.253Z,0
2018-12-03T02:16:45.377Z,0
2018-12-03T02:17:55.253Z,0
2018-12-03T02:19:05.130Z,0
2018-12-03T02:20:15.269Z,0
2018-12-03T02:21:25.103Z,0
2018-12-03T02:22:35.232Z,0
2018-12-03T02:23:45.381Z,0
2018-12-03T02:24:55.707Z,0
2018-12-03T02:26:05.818Z,0
2018-12-03T02:27:15.742Z,0
2018-12-03T02:28:25.858Z,0
2018-12-03T02:29:36.035Z,0
2018-12-03T02:30:46.223Z,0
2018-12-03T02:31:56.100Z,0
2018-12-03T02:33:06.193Z,0
2018-12-03T02:34:16.356Z,0
2018-12-03T02:35:26.470Z,0
2018-12-03T02:36:36.341Z,0
2018-12-03T02:37:46.481Z,0
2018-12-03T02:38:57.670Z,0
2018-12-03T02:40:10.382Z,0
2018-12-03T02:41:20.532Z,0
2018-12-03T02:42:30.410Z,0
2018-12-03T02:43:40.776Z,0
2018-12-03T02:44:50.939Z,0
2018-12-03T02:46:02.281Z,0
2018-12-03T02:47:12.159Z,0
2018-12-03T02:48:22.288Z,0
2018-12-03T02:49:32.173Z,0
2018-12-03T02:50:42.114Z,0
2018-12-03T02:51:52.230Z,0
2018-12-03T02:53:02.346Z,0
2018-12-03T02:54:12.458Z,0
2018-12-03T02:55:22.574Z,0
2018-12-03T02:56:32.903Z,0
2018-12-03T02:57:43.052Z,0
2018-12-03T02:58:53.188Z,0
2018-12-03T03:00:03.323Z,0
2018-12-03T03:01:13.474Z,0
2018-12-03T03:02:23.627Z,0
2018-12-03T03:34:47.798Z,0
2018-12-03T03:35:57.845Z,0
2018-12-03T03:37:08.052Z,0
2018-12-03T03:38:18.132Z,0
2018-12-03T03:39:28.288Z,0
2018-12-03T03:40:38.220Z,0
2018-12-03T03:41:48.287Z,0
2018-12-03T03:42:58.082Z,0
2018-12-03T03:44:08.157Z,0
2018-12-03T03:45:18.317Z,0
2018-12-03T03:46:28.391Z,0
2018-12-03T03:47:38.447Z,0
2018-12-03T03:48:48.257Z,0
2018-12-03T03:49:58.056Z,0
2018-12-03T03:51:08.117Z,0
2018-12-03T03:52:18.245Z,0
2018-12-03T03:53:28.310Z,0
2018-12-03T03:54:38.362Z,0
2018-12-03T03:55:48.721Z,0
2018-12-03T03:56:58.520Z,0
2018-12-03T03:58:08.117Z,0
2018-12-03T03:59:17.928Z,0
2018-12-03T04:00:27.988Z,0
2018-12-03T04:01:37.807Z,0
2018-12-03T04:02:47.932Z,0
2018-12-03T04:03:58.057Z,0
2018-12-03T04:05:08.649Z,0
2018-12-03T04:06:18.756Z,0
2018-12-03T04:07:28.812Z,0
2018-12-03T04:08:38.607Z,0
2018-12-03T04:09:48.684Z,0
2018-12-03T04:10:58.495Z,0
2018-12-03T04:12:10.613Z,0
2018-12-03T04:13:20.426Z,0
2018-12-03T04:14:30.516Z,0
2018-12-03T04:15:40.650Z,0
2018-12-03T04:16:50.712Z,0
2018-12-03T04:18:01.370Z,0
2018-12-03T04:19:11.435Z,0
2018-12-03T04:20:21.295Z,0
2018-12-03T04:21:31.342Z,0
2018-12-03T04:22:41.444Z,0
2018-12-03T04:23:51.521Z,0
2018-12-03T04:25:01.571Z,0
2018-12-03T04:26:11.665Z,0
2018-12-03T04:27:21.739Z,0
2018-12-03T04:28:31.819Z,0
2018-12-03T04:29:41.913Z,0
2018-12-03T04:30:51.969Z,0
2018-12-03T04:32:02.042Z,0
2018-12-03T04:33:12.148Z,0
2018-12-03T04:34:21.742Z,0
2018-12-03T04:35:31.831Z,0
2018-12-03T04:36:41.895Z,0
2018-12-03T04:37:52.030Z,0
2018-12-03T04:39:03.196Z,0
2018-12-03T04:40:13.270Z,0
2018-12-03T04:41:23.348Z,0
2018-12-03T04:42:33.446Z,0
2018-12-03T04:43:43.516Z,0
2018-12-03T04:44:53.625Z,0
2018-12-03T04:46:04.732Z,0
2018-12-03T04:47:14.791Z,0
2018-12-03T04:48:24.595Z,0
2018-12-03T04:49:34.844Z,0
2018-12-03T04:50:44.713Z,0
2018-12-03T04:51:54.772Z,0
2018-12-03T04:53:04.839Z,0
2018-12-03T04:54:15.099Z,0
2018-12-03T04:55:25.283Z,0
2018-12-03T04:56:35.401Z,0
2018-12-03T04:57:45.244Z,0
2018-12-03T04:58:55.314Z,0
2018-12-03T05:00:05.147Z,0
2018-12-03T05:01:15.231Z,0
2018-12-03T05:02:25.042Z,0
2018-12-03T05:03:34.847Z,0
2018-12-03T05:04:45.552Z,0
2018-12-03T05:05:55.122Z,0
2018-12-03T05:07:05.635Z,0
2018-12-03T05:08:15.804Z,0
2018-12-03T05:09:25.864Z,0
2018-12-03T05:10:36.242Z,0
2018-12-03T05:11:46.299Z,0
2018-12-03T05:12:56.568Z,0
2018-12-03T05:14:06.393Z,0
2018-12-03T05:15:16.212Z,0
2018-12-03T05:16:26.342Z,0
2018-12-03T05:17:36.401Z,0
2018-12-03T05:18:46.214Z,0
2018-12-03T05:19:56.280Z,0
2018-12-03T05:21:06.346Z,0
2018-12-03T05:22:16.399Z,0
2018-12-03T05:23:26.498Z,0
2018-12-03T05:24:36.568Z,0
2018-12-03T05:25:46.609Z,0
2018-12-03T05:26:56.419Z,0
2018-12-03T05:28:06.331Z,0
2018-12-03T05:29:16.406Z,0
2018-12-03T05:30:26.236Z,0
2018-12-03T05:31:36.364Z,0
2018-12-03T05:32:46.453Z,0
2018-12-03T05:33:56.275Z,0
2018-12-03T05:35:07.123Z,0
2018-12-03T05:36:17.182Z,0
2018-12-03T05:37:26.985Z,0
2018-12-03T05:38:37.094Z,0
2018-12-03T05:39:47.165Z,0
2018-12-03T05:40:57.446Z,0
2018-12-03T05:42:07.952Z,0
2018-12-03T05:43:18.023Z,0
2018-12-03T05:44:28.093Z,0
2018-12-03T05:45:38.143Z,0
2018-12-03T05:46:48.235Z,0
2018-12-03T05:47:58.025Z,0
2018-12-03T05:49:07.609Z,0
2018-12-03T05:50:17.650Z,0
2018-12-03T05:51:27.709Z,0
2018-12-03T05:52:37.995Z,0
2018-12-03T05:53:48.053Z,0
2018-12-03T05:54:58.117Z,0
2018-12-03T05:56:08.201Z,0
2018-12-03T05:57:18.346Z,0
2018-12-03T05:58:28.620Z,0
2018-12-03T05:59:38.678Z,0
2018-12-03T06:00:48.745Z,0
2018-12-03T06:01:58.807Z,4
2018-12-03T06:03:08.649Z,0
2018-12-03T06:04:18.733Z,0
2018-12-03T06:05:28.802Z,4
2018-12-03T06:06:39.615Z,4
2018-12-03T06:07:49.701Z,4
2018-12-03T06:09:01.219Z,4
2018-12-03T06:10:11.010Z,4
2018-12-03T06:11:21.061Z,4
2018-12-03T06:12:31.377Z,8
2018-12-03T06:13:41.445Z,12
2018-12-03T06:14:51.609Z,8
2018-12-03T06:16:03.767Z,8
2018-12-03T06:17:13.813Z,12
2018-12-03T06:18:23.913Z,8
2018-12-03T06:19:33.735Z,8
2018-12-03T06:20:43.554Z,12
2018-12-03T06:21:53.625Z,20
2018-12-03T06:23:03.707Z,16
2018-12-03T06:24:13.783Z,12
2018-12-03T06:25:23.888Z,20
2018-12-03T06:26:33.772Z,20
2018-12-03T06:27:43.857Z,24
2018-12-03T06:28:53.930Z,24
2018-12-03T06:30:03.997Z,28
2018-12-03T06:31:14.060Z,32
2018-12-03T06:32:24.318Z,28
2018-12-03T06:33:34.423Z,36
2018-12-03T06:34:44.496Z,40
2018-12-03T06:35:54.296Z,40
2018-12-03T06:37:04.350Z,44
2018-12-03T06:38:19.866Z,48
2018-12-03T06:39:29.942Z,52
2018-12-03T06:40:40.273Z,60
2018-12-03T06:41:50.327Z,60
2018-12-03T06:43:00.396Z,60
2018-12-03T06:44:10.461Z,64
2018-12-03T06:45:20.253Z,72
2018-12-03T06:46:29.821Z,76
2018-12-03T06:47:40.000Z,88
2018-12-03T06:48:50.067Z,96
2018-12-03T06:50:00.394Z,104
2018-12-03T06:51:10.418Z,116
2018-12-03T06:52:20.486Z,136
2018-12-03T06:53:30.559Z,148
2018-12-03T06:54:40.626Z,164
2018-12-03T06:55:50.448Z,176
2018-12-03T06:57:01.454Z,188
2018-12-03T06:58:11.320Z,212
2018-12-03T06:59:21.153Z,224
2018-12-03T07:00:30.949Z,232
2018-12-03T07:01:41.036Z,240
2018-12-03T07:02:51.359Z,256
2018-12-03T07:04:01.458Z,284
2018-12-03T07:05:11.542Z,288
2018-12-03T07:06:21.598Z,292
2018-12-03T07:07:31.645Z,300
2018-12-03T07:08:41.432Z,312
2018-12-03T07:09:51.519Z,320
2018-12-03T07:11:05.075Z,340
2018-12-03T07:12:15.155Z,364
2018-12-03T07:13:25.464Z,368
2018-12-03T07:14:35.578Z,384
2018-12-03T07:15:45.647Z,380
2018-12-03T07:16:55.695Z,396
2018-12-03T07:18:06.002Z,400
2018-12-03T07:19:16.303Z,416
2018-12-03T07:20:26.374Z,456
2018-12-03T07:21:36.171Z,424
2018-12-03T07:22:45.973Z,428
2018-12-03T07:23:56.059Z,488
2018-12-03T07:25:05.870Z,532
2018-12-03T07:26:15.664Z,536
2018-12-03T07:27:26.983Z,580
2018-12-03T07:28:37.062Z,620
2018-12-03T07:29:47.112Z,660
2018-12-03T07:31:00.696Z,628
2018-12-03T07:32:10.834Z,612
2018-12-03T07:33:20.890Z,632
2018-12-03T07:34:30.942Z,716
2018-12-03T07:35:40.555Z,644
2018-12-03T07:36:50.603Z,688
2018-12-03T07:38:00.683Z,540
2018-12-03T07:39:10.762Z,640
2018-12-03T07:40:20.828Z,512
2018-12-03T07:41:30.905Z,540
2018-12-03T07:42:40.476Z,496
2018-12-03T07:43:50.550Z,492
2018-12-03T07:45:00.835Z,504
2018-12-03T07:46:10.887Z,544
2018-12-03T07:47:20.968Z,576
2018-12-03T07:48:30.766Z,556
2018-12-03T07:49:40.564Z,544
2018-12-03T07:50:50.388Z,616
2018-12-03T07:52:00.951Z,636
2018-12-03T07:53:11.014Z,676
2018-12-03T07:54:20.819Z,780
2018-12-03T07:55:30.896Z,736
2018-12-03T07:56:40.955Z,828
2018-12-03T07:57:50.809Z,760
2018-12-03T07:59:01.100Z,880
2018-12-03T08:00:12.209Z,780
2018-12-03T08:01:22.282Z,832
2018-12-03T08:02:32.366Z,860
2018-12-03T08:03:42.433Z,816
2018-12-03T08:04:52.519Z,828
2018-12-03T08:06:02.058Z,880
2018-12-03T08:07:12.131Z,804
2018-12-03T08:08:21.957Z,960
2018-12-03T08:09:32.037Z,920
2018-12-03T08:10:41.856Z,980
2018-12-03T08:11:51.911Z,992
2018-12-03T08:13:01.987Z,996
2018-12-03T08:14:12.064Z,928
2018-12-03T08:15:22.139Z,968
2018-12-03T08:16:32.207Z,952
2018-12-03T08:17:42.263Z,1092
2018-12-03T08:18:52.356Z,1192
2018-12-03T08:20:03.872Z,1192
2018-12-03T08:21:13.675Z,1216
2018-12-03T08:22:23.485Z,1240
2018-12-03T08:23:33.307Z,1268
2018-12-03T08:24:43.392Z,1284
2018-12-03T08:25:53.447Z,1276
2018-12-03T08:27:03.506Z,1172
2018-12-03T08:28:13.624Z,1092
2018-12-03T08:29:23.705Z,1044
2018-12-03T08:30:33.768Z,952
2018-12-03T08:31:43.563Z,876
2018-12-03T08:32:53.656Z,780
2018-12-03T08:34:03.739Z,744
2018-12-03T08:35:14.054Z,724
2018-12-03T08:36:24.097Z,720
2018-12-03T08:37:34.168Z,616
2018-12-03T08:38:44.238Z,596
2018-12-03T08:39:54.307Z,588
2018-12-03T08:41:04.837Z,576
2018-12-03T08:42:14.904Z,548
2018-12-03T08:43:24.987Z,532
2018-12-03T08:44:35.053Z,560
2018-12-03T08:45:45.115Z,580
2018-12-03T08:46:55.421Z,516
2018-12-03T08:48:08.189Z,516
2018-12-03T08:49:19.079Z,520
2018-12-03T08:50:29.417Z,544
2018-12-03T08:51:39.536Z,580
2018-12-03T08:52:49.435Z,628
2018-12-03T08:53:59.258Z,616
2018-12-03T08:55:09.558Z,616
2018-12-03T08:56:19.651Z,680
2018-12-03T08:57:30.159Z,684
2018-12-03T08:58:39.448Z,760
2018-12-03T08:59:49.275Z,804
2018-12-03T09:00:59.390Z,828
2018-12-03T09:02:10.062Z,876
2018-12-03T09:03:20.145Z,992
2018-12-03T09:04:29.963Z,1024
2018-12-03T09:05:40.028Z,1032
2018-12-03T09:06:49.838Z,1216
2018-12-03T09:07:59.907Z,1344
2018-12-03T09:09:10.626Z,1512
2018-12-03T09:10:20.458Z,1416
2018-12-03T09:11:30.540Z,1464
2018-12-03T09:12:40.694Z,1624
2018-12-03T09:13:50.501Z,2076
2018-12-03T09:15:00.569Z,2080
2018-12-03T09:16:10.667Z,2028
2018-12-03T09:17:20.725Z,1784
2018-12-03T09:18:30.270Z,1780
2018-12-03T09:19:40.327Z,1924
2018-12-03T09:20:50.422Z,1912
2018-12-03T09:22:02.174Z,1888
2018-12-03T09:23:12.245Z,1948
2018-12-03T09:24:22.303Z,1852
2018-12-03T09:25:32.112Z,1664
2018-12-03T09:26:42.385Z,1592
2018-12-03T09:27:52.253Z,1580
2018-12-03T09:29:03.139Z,1436
2018-12-03T09:30:13.187Z,1268
2018-12-03T09:31:23.246Z,1148
2018-12-03T09:32:33.376Z,1128
2018-12-03T09:33:43.523Z,976
2018-12-03T09:34:53.600Z,944
2018-12-03T09:36:05.390Z,1068
2018-12-03T09:37:15.436Z,1080
2018-12-03T09:38:25.258Z,984
2018-12-03T09:39:35.391Z,892
2018-12-03T09:40:45.472Z,848
2018-12-03T09:41:55.275Z,868
2018-12-03T09:43:05.373Z,888
2018-12-03T09:44:15.427Z,964
2018-12-03T09:45:25.739Z,804
2018-12-03T09:46:35.917Z,696
2018-12-03T09:47:46.000Z,672
2018-12-03T09:48:56.085Z,660
2018-12-03T09:50:05.955Z,820
2018-12-03T09:51:16.490Z,860
2018-12-03T09:52:26.285Z,960
2018-12-03T09:53:36.353Z,980
2018-12-03T09:54:46.430Z,956
2018-12-03T09:55:56.515Z,1068
2018-12-03T09:57:06.571Z,1148
2018-12-03T09:58:17.314Z,1060
2018-12-03T09:59:27.371Z,1060
2018-12-03T10:00:37.181Z,1360
2018-12-03T10:01:47.504Z,1292
2018-12-03T10:02:57.661Z,1176
2018-12-03T10:04:07.465Z,1124
2018-12-03T10:05:17.539Z,1272
2018-12-03T10:06:27.356Z,1752
2018-12-03T10:07:37.407Z,1660
2018-12-03T10:08:47.465Z,1516
2018-12-03T10:09:57.768Z,1356
2018-12-03T10:11:08.369Z,1136
2018-12-03T10:12:23.583Z,1088
2018-12-03T10:13:33.913Z,1156
2018-12-03T10:14:43.987Z,1328
2018-12-03T10:15:53.800Z,1084
2018-12-03T10:17:05.967Z,1352
2018-12-03T10:18:15.774Z,1384
2018-12-03T10:19:25.906Z,1416
2018-12-03T10:20:35.967Z,1408
2018-12-03T10:21:50.017Z,1644
2018-12-03T10:23:01.481Z,1760
2018-12-03T10:24:11.565Z,2036
2018-12-03T10:25:21.614Z,1772
2018-12-03T10:26:31.673Z,1984
2018-12-03T10:27:41.498Z,1840
2018-12-03T10:28:51.584Z,1756
2018-12-03T10:30:01.886Z,1864
2018-12-03T10:31:12.239Z,1776
2018-12-03T10:32:22.520Z,1752
2018-12-03T10:33:32.698Z,1892
2018-12-03T10:34:42.773Z,1788
2018-12-03T10:35:52.592Z,1772
2018-12-03T10:37:02.712Z,1712
2018-12-03T10:38:12.795Z,1872
2018-12-03T10:39:23.095Z,2108
2018-12-03T10:40:32.711Z,2088
2018-12-03T10:41:42.797Z,1992
2018-12-03T10:42:52.860Z,2200
2018-12-03T10:44:02.916Z,2048
2018-12-03T10:45:12.992Z,1936
2018-12-03T10:46:22.816Z,1820
2018-12-03T10:47:32.648Z,1764
2018-12-03T10:48:42.454Z,1696
2018-12-03T10:49:52.511Z,1904
2018-12-03T10:51:02.737Z,1976
2018-12-03T10:52:12.637Z,1836
2018-12-03T10:53:22.693Z,1760
2018-12-03T10:54:32.794Z,1820
2018-12-03T10:55:42.850Z,1580
2018-12-03T10:56:52.914Z,1532
2018-12-03T10:58:05.336Z,1572
2018-12-03T10:59:15.390Z,1444
2018-12-03T11:00:25.460Z,1228
2018-12-03T11:01:35.476Z,1148
2018-12-03T11:02:45.760Z,1028
2018-12-03T11:03:55.893Z,984
2018-12-03T11:05:05.958Z,848
2018-12-03T11:06:16.062Z,920
2018-12-03T11:07:26.137Z,912
2018-12-03T11:08:36.619Z,900
2018-12-03T11:09:47.045Z,1012
2018-12-03T11:10:56.850Z,1092
2018-12-03T11:12:06.915Z,1176
2018-12-03T11:13:16.734Z,1120
2018-12-03T11:14:26.301Z,1256
2018-12-03T11:15:36.409Z,1164
2018-12-03T11:16:46.543Z,1140
2018-12-03T11:17:56.375Z,1188
2018-12-03T11:19:06.438Z,1184
2018-12-03T11:20:16.255Z,1124
2018-12-03T11:21:26.435Z,1116
2018-12-03T11:22:36.495Z,884
2018-12-03T11:23:46.300Z,996
2018-12-03T11:24:56.129Z,856
2018-12-03T11:26:07.719Z,804
2018-12-03T11:27:17.835Z,924
2018-12-03T11:28:27.927Z,960
2018-12-03T11:29:37.971Z,952
2018-12-03T11:30:48.063Z,1056
2018-12-03T11:31:58.127Z,1092
2018-12-03T11:33:08.189Z,1124
2018-12-03T11:34:18.284Z,1168
2018-12-03T11:35:28.094Z,1012
2018-12-03T11:36:38.183Z,1124
2018-12-03T11:37:48.238Z,1088
2018-12-03T11:38:58.336Z,1000
2018-12-03T11:40:08.652Z,1108
2018-12-03T11:41:18.473Z,1176
2018-12-03T11:42:28.688Z,1288
2018-12-03T11:43:38.745Z,1404
2018-12-03T11:44:49.005Z,1404
2018-12-03T11:45:59.317Z,1756
2018-12-03T11:47:09.137Z,1776
2018-12-03T11:48:19.056Z,1816
2018-12-03T11:49:29.164Z,1888
2018-12-03T11:50:39.269Z,1824
2018-12-03T11:51:49.578Z,2156
2018-12-03T11:52:59.657Z,2176
2018-12-03T11:54:24.290Z,2188
2018-12-03T11:55:34.360Z,2280
2018-12-03T11:56:44.520Z,2216
2018-12-03T11:57:55.421Z,2124
2018-12-03T11:59:05.893Z,2076
2018-12-03T12:00:16.185Z,1864
2018-12-03T12:01:26.262Z,1828
2018-12-03T12:02:36.327Z,1592
2018-12-03T12:03:50.199Z,1300
2018-12-03T12:05:00.001Z,1400
2018-12-03T12:06:10.062Z,1224
2018-12-03T12:07:20.125Z,1116
2018-12-03T12:08:30.253Z,996
2018-12-03T12:09:40.328Z,828
2018-12-03T12:10:50.134Z,716
2018-12-03T12:12:00.302Z,780
2018-12-03T12:13:10.356Z,636
2018-12-03T12:14:20.439Z,692
2018-12-03T12:15:30.530Z,876
2018-12-03T12:16:40.176Z,1068
2018-12-03T12:17:50.255Z,1152
2018-12-03T12:19:00.586Z,1408
2018-12-03T12:20:11.167Z,1452
2018-12-03T12:21:21.243Z,1672
2018-12-03T12:22:31.303Z,1712
2018-12-03T12:23:41.382Z,1772
2018-12-03T12:24:51.458Z,1840
2018-12-03T12:26:02.859Z,1536
2018-12-03T12:27:12.929Z,1884
2018-12-03T12:28:22.761Z,2176
2018-12-03T12:29:32.892Z,1952
2018-12-03T12:30:42.941Z,2276
2018-12-03T12:31:52.748Z,2316
2018-12-03T12:33:03.746Z,2232
2018-12-03T12:34:13.569Z,2208
2018-12-03T12:35:23.632Z,2148
2018-12-03T12:36:33.708Z,2076
2018-12-03T12:37:43.520Z,1980
2018-12-03T12:38:53.596Z,1920
2018-12-03T12:40:03.668Z,1832
2018-12-03T12:41:13.751Z,1816
2018-12-03T12:42:23.813Z,1816
2018-12-03T12:43:39.639Z,1644
2018-12-03T12:44:49.707Z,1612
2018-12-03T12:45:59.320Z,1628
2018-12-03T12:47:09.450Z,1684
2018-12-03T12:48:19.532Z,1568
2018-12-03T12:49:29.100Z,1440
2018-12-03T12:50:39.632Z,1676
2018-12-03T12:51:54.119Z,1880
2018-12-03T12:53:04.206Z,1964
2018-12-03T12:54:14.063Z,2000
2018-12-03T12:55:23.936Z,1824
2018-12-03T12:56:33.990Z,2036
2018-12-03T12:57:44.068Z,2040
2018-12-03T12:58:54.201Z,1892
2018-12-03T13:00:04.497Z,2076
2018-12-03T13:01:14.600Z,2236
2018-12-03T13:02:24.720Z,2384
2018-12-03T13:03:34.850Z,2504
2018-12-03T13:04:44.909Z,2100
2018-12-03T13:05:54.976Z,2000
2018-12-03T13:07:08.250Z,1824
2018-12-03T13:08:18.317Z,1672
2018-12-03T13:09:28.385Z,1588
2018-12-03T13:10:38.496Z,2232
2018-12-03T13:11:48.560Z,2396
2018-12-03T13:12:58.646Z,1920
2018-12-03T13:14:08.778Z,3096
2018-12-03T13:15:18.844Z,3076
2018-12-03T13:16:28.971Z,2540
2018-12-03T13:17:38.762Z,2468
2018-12-03T13:18:48.605Z,2156
2018-12-03T13:19:58.687Z,1960
2018-12-03T13:21:08.505Z,2068
2018-12-03T13:22:18.680Z,2108
2018-12-03T13:23:28.795Z,2088
2018-12-03T13:24:38.902Z,1716
2018-12-03T13:25:48.988Z,1908
2018-12-03T13:26:58.814Z,1904
2018-12-03T13:28:10.292Z,1800
2018-12-03T13:29:20.102Z,1560
2018-12-03T13:30:30.179Z,1652
2018-12-03T13:31:40.258Z,1808
2018-12-03T13:32:50.323Z,1716
2018-12-03T13:34:00.656Z,1408
2018-12-03T13:35:10.868Z,1176
2018-12-03T13:36:20.690Z,1264
2018-12-03T13:37:30.506Z,996
2018-12-03T13:38:40.575Z,996
2018-12-03T13:39:50.435Z,960
2018-12-03T13:41:00.523Z,1248
2018-12-03T13:42:10.597Z,1204
2018-12-03T13:43:20.766Z,964
2018-12-03T13:44:30.773Z,836
2018-12-03T13:45:40.845Z,808
2018-12-03T13:46:50.663Z,760
2018-12-03T13:48:00.416Z,732
2018-12-03T13:49:10.497Z,756
2018-12-03T13:50:20.334Z,688
2018-12-03T13:51:30.382Z,636
2018-12-03T13:52:40.687Z,640
2018-12-03T13:53:50.783Z,584
2018-12-03T13:55:00.564Z,528
2018-12-03T13:56:10.621Z,468
2018-12-03T13:57:20.760Z,440
2018-12-03T13:58:30.840Z,436
2018-12-03T13:59:40.900Z,380
2018-12-03T14:00:50.967Z,340
2018-12-03T14:02:00.782Z,304
2018-12-03T14:03:10.863Z,268
2018-12-03T14:04:20.687Z,252
2018-12-03T14:05:30.756Z,244
2018-12-03T14:06:40.824Z,228
2018-12-03T14:07:51.001Z,216
2018-12-03T14:09:03.800Z,220
2018-12-03T14:10:14.856Z,236
2018-12-03T14:11:25.342Z,256
2018-12-03T14:12:35.488Z,284
2018-12-03T14:13:45.295Z,312
2018-12-03T14:14:55.127Z,348
2018-12-03T14:16:04.816Z,404
2018-12-03T14:17:14.878Z,400
2018-12-03T14:18:24.683Z,312
2018-12-03T14:19:34.859Z,244
2018-12-03T14:20:44.932Z,204
2018-12-03T14:21:55.020Z,212
2018-12-03T14:23:06.193Z,236
2018-12-03T14:24:16.268Z,192
2018-12-03T14:25:26.439Z,176
2018-12-03T14:26:36.629Z,172
2018-12-03T14:27:46.817Z,156
2018-12-03T14:28:56.887Z,156
2018-12-03T14:30:06.970Z,172
2018-12-03T14:31:17.094Z,172
2018-12-03T14:32:27.180Z,164
2018-12-03T14:33:37.241Z,168
2018-12-03T14:34:47.294Z,160
2018-12-03T14:35:57.357Z,160
2018-12-03T14:37:07.574Z,208
2018-12-03T14:38:17.643Z,172
2018-12-03T14:39:27.551Z,160
2018-12-03T14:40:37.619Z,156
2018-12-03T14:41:47.690Z,132
2018-12-03T14:42:57.247Z,124
2018-12-03T14:44:07.301Z,100
2018-12-03T14:45:17.477Z,104
2018-12-03T14:46:27.295Z,92
2018-12-03T14:47:37.398Z,76
2018-12-03T14:48:47.452Z,72
2018-12-03T14:49:57.516Z,52
2018-12-03T14:51:07.888Z,52
2018-12-03T14:52:17.968Z,52
2018-12-03T14:53:28.029Z,44
2018-12-03T14:54:38.157Z,48
2018-12-03T14:55:48.224Z,52
2018-12-03T14:56:58.029Z,44
2018-12-03T14:58:08.131Z,40
2018-12-03T14:59:17.980Z,40
2018-12-03T15:00:28.337Z,40
2018-12-03T15:01:38.427Z,36
2018-12-03T15:02:48.529Z,32
2018-12-03T15:03:58.630Z,32
2018-12-03T15:05:08.774Z,28
2018-12-03T15:06:18.859Z,24
2018-12-03T15:07:28.935Z,20
2018-12-03T15:08:39.014Z,20
2018-12-03T15:09:49.130Z,16
2018-12-03T15:10:59.178Z,12
2018-12-03T15:12:09.048Z,8
2018-12-03T15:13:18.861Z,8
2018-12-03T15:14:28.659Z,4
2018-12-03T15:15:38.721Z,8
2018-12-03T15:16:48.829Z,4
2018-12-03T15:17:58.891Z,4
2018-12-03T15:19:14.098Z,4
2018-12-03T15:20:23.650Z,4
2018-12-03T15:21:33.724Z,4
2018-12-03T15:22:43.790Z,4
2018-12-03T15:23:53.852Z,0
2018-12-03T15:25:03.921Z,0
2018-12-03T15:26:13.752Z,4
2018-12-03T15:27:23.808Z,4
2018-12-03T15:28:33.892Z,4
2018-12-03T15:29:43.961Z,0
2018-12-03T15:30:53.764Z,0
2018-12-03T15:32:03.823Z,0
2018-12-03T15:33:13.911Z,0
2018-12-03T15:34:23.997Z,0
2018-12-03T15:35:34.060Z,0
2018-12-03T15:36:44.957Z,0
2018-12-03T15:37:55.013Z,0
2018-12-03T15:39:05.170Z,0
2018-12-03T15:40:14.974Z,0
2018-12-03T15:41:25.029Z,0
2018-12-03T15:42:34.870Z,0
2018-12-03T15:43:44.427Z,0
2018-12-03T15:44:54.285Z,0
2018-12-03T15:46:04.351Z,0
2018-12-03T15:47:14.416Z,0
2018-12-03T15:48:24.474Z,0
2018-12-03T15:49:34.276Z,0
2018-12-03T15:50:44.082Z,0
2018-12-03T15:51:54.152Z,0
2018-12-03T15:53:04.245Z,0
2018-12-03T15:54:14.312Z,0
2018-12-03T15:55:24.413Z,0
2018-12-03T15:56:34.478Z,0
2018-12-03T15:57:44.543Z,0
2018-12-03T15:58:54.362Z,0
2018-12-03T16:00:06.582Z,0
2018-12-03T16:01:21.759Z,0
2018-12-03T16:02:31.950Z,0
2018-12-03T16:03:41.487Z,0
2018-12-03T16:04:51.297Z,0
2018-12-03T16:06:01.368Z,0
2018-12-03T16:07:11.431Z,0
2018-12-03T16:08:21.496Z,0
2018-12-03T16:09:31.718Z,0
2018-12-03T16:10:41.533Z,0
2018-12-03T16:11:51.586Z,0
2018-12-03T16:13:01.670Z,0
2018-12-03T16:14:11.750Z,0
2018-12-03T16:15:21.825Z,0
2018-12-03T16:16:31.876Z,0
2018-12-03T16:17:41.683Z,0
2018-12-03T16:18:51.480Z,0
2018-12-03T16:20:01.073Z,0
2018-12-03T16:21:11.146Z,0
2018-12-03T16:22:20.960Z,0
2018-12-03T16:23:31.044Z,0
2018-12-03T16:24:41.204Z,0
2018-12-03T16:25:51.317Z,0
2018-12-03T16:27:01.387Z,0
2018-12-03T16:28:11.449Z,0
2018-12-03T16:29:21.510Z,0
2018-12-03T16:30:31.598Z,0
2018-12-03T16:31:41.670Z,0
2018-12-03T16:32:51.791Z,0
2018-12-03T16:34:01.597Z,0
2018-12-03T16:35:11.460Z,0
2018-12-03T16:36:21.565Z,0
2018-12-03T16:37:31.646Z,0
2018-12-03T16:38:41.722Z,0
2018-12-03T16:39:51.842Z,0
2018-12-03T16:41:01.918Z,0
2018-12-03T16:42:11.991Z,0
2018-12-03T16:43:22.133Z,0
2018-12-03T16:44:32.233Z,0
2018-12-03T16:45:42.296Z,0
2018-12-03T16:46:52.376Z,0
2018-12-03T16:48:02.437Z,0
2018-12-03T16:49:13.356Z,0
2018-12-03T16:50:24.324Z,0
2018-12-03T16:51:34.404Z,0
2018-12-03T16:52:44.529Z,0
2018-12-03T16:53:54.616Z,0
2018-12-03T16:55:04.694Z,0
2018-12-03T16:56:14.775Z,0
2018-12-03T16:57:24.895Z,0
2018-12-03T16:58:35.014Z,0
2018-12-03T16:59:44.863Z,0
2018-12-03T17:00:54.676Z,0
2018-12-03T17:02:04.762Z,0
2018-12-03T17:03:14.845Z,0